This is the latest recevied weather packets stored in our database for station/object DM3DP. If no packets are shown the sender has not sent any weather packets the latest 10 day(s).
| Time | Temp. | Humidity | Pressure | Rain* | Wind** | Luminosity | Snow |
|---|---|---|---|---|---|---|---|
| 1776926784 | 8.33° C | 67% | 1027.3 hPa | 0 mm | - | 598 W/m² | - |
| 1776926454 | 7.78° C | 68% | 1027.2 hPa | 0 mm | - | 585 W/m² | - |
| 1776926123 | 7.22° C | 71% | 1027.2 hPa | 0 mm | - | 549 W/m² | - |
| 1776925794 | 7.22° C | 71% | 1027.1 hPa | 0 mm | - | 534 W/m² | - |
| 1776925464 | 6.67° C | 73% | 1027.1 hPa | 0 mm | - | 517 W/m² | - |
| 1776925133 | 6.67° C | 70% | 1027.1 hPa | 0 mm | - | 494 W/m² | - |
| 1776924803 | 6.67° C | 70% | 1027 hPa | 0 mm | - | 473 W/m² | - |
| 1776924473 | 6.11° C | 70% | 1027.1 hPa | 0 mm | - | 450 W/m² | - |
| 1776924143 | 6.11° C | 70% | 1027.1 hPa | 0 mm | - | 425 W/m² | - |
| 1776923813 | 7.22° C | 70% | 1027.1 hPa | 0 mm | - | 406 W/m² | - |
| 1776923483 | 7.22° C | 70% | 1027.1 hPa | 0 mm | - | 383 W/m² | - |
| 1776923153 | 8.33° C | 73% | 1027 hPa | 0 mm | - | 363 W/m² | - |
| 1776922823 | 8.33° C | 77% | 1027 hPa | 0 mm | - | 318 W/m² | - |
| 1776922494 | 5.56° C | 86% | 1027 hPa | 0 mm | - | 294 W/m² | - |
| 1776922163 | 3.89° C | 86% | 1027 hPa | 0 mm | - | 262 W/m² | - |
| 1776921833 | 2.22° C | 88% | 1027 hPa | 0 mm | - | 161 W/m² | - |
| 1776921503 | 2.22° C | 88% | 1026.9 hPa | 0 mm | - | 38 W/m² | - |
| 1776921174 | 2.22° C | 88% | 1026.9 hPa | 0 mm | - | 34 W/m² | - |
| 1776920843 | 2.22° C | 88% | 1026.8 hPa | 0 mm | - | 30 W/m² | - |
| 1776920513 | 2.22° C | 88% | 1026.8 hPa | 0 mm | - | 26 W/m² | - |
| 1776920184 | 2.22° C | 88% | 1026.8 hPa | 0 mm | - | 22 W/m² | - |
| 1776919853 | 2.22° C | 88% | 1026.7 hPa | 0 mm | - | 19 W/m² | - |
| 1776919524 | 2.22° C | 87% | 1026.5 hPa | 0 mm | - | 13 W/m² | - |
| 1776919191 | 2.22° C | 87% | 1026.4 hPa | 0 mm | - | 10 W/m² | - |
| 1776918861 | 2.22° C | 87% | 1026.4 hPa | 0 mm | - | 7 W/m² | - |
* Rain latest hour (hover to see other rain measurements)
** Current wind speed in m/s (hover to see current wind gust speed)